sensor_id;sensor_type;location;lat;lon;timestamp;P1;durP1;ratioP1;P2;durP2;ratioP2
63690;SDS011;49837;57.280;27.070;2022-09-12T00:00:21;2.9;;;1.9;;
63690;SDS011;49837;57.280;27.070;2022-09-12T00:01:23;3.4;;;2.0;;
63690;SDS011;49837;57.280;27.070;2022-09-12T00:02:23;4.8;;;2.0;;
63690;SDS011;49837;57.280;27.070;2022-09-12T00:03:22;3.0;;;2.0;;
63690;SDS011;49837;57.280;27.070;2022-09-12T00:04:23;3.3;;;2.1;;
63690;SDS011;49837;57.280;27.070;2022-09-12T00:05:23;4.7;;;2.2;;
63690;SDS011;49837;57.280;27.070;2022-09-12T00:06:31;2.5;;;1.8;;
63690;SDS011;49837;57.280;27.070;2022-09-12T00:07:25;3.9;;;2.1;;
63690;SDS011;49837;57.280;27.070;2022-09-12T00:08:25;2.8;;;2.0;;
63690;SDS011;49837;57.280;27.070;2022-09-12T00:09:26;5.4;;;2.7;;
63690;SDS011;49837;57.280;27.070;2022-09-12T00:10:26;2.7;;;1.9;;
63690;SDS011;49837;57.280;27.070;2022-09-12T00:11:26;3.4;;;1.9;;
63690;SDS011;49837;57.280;27.070;2022-09-12T00:12:27;4.2;;;2.2;;
63690;SDS011;49837;57.280;27.070;2022-09-12T00:13:27;2.8;;;2.0;;
63690;SDS011;49837;57.280;27.070;2022-09-12T00:14:28;3.2;;;2.1;;
63690;SDS011;49837;57.280;27.070;2022-09-12T00:15:28;3.7;;;2.3;;
63690;SDS011;49837;57.280;27.070;2022-09-12T00:16:29;4.3;;;2.2;;
63690;SDS011;49837;57.280;27.070;2022-09-12T00:17:29;3.0;;;2.3;;
63690;SDS011;49837;57.280;27.070;2022-09-12T00:18:29;3.1;;;1.9;;
63690;SDS011;49837;57.280;27.070;2022-09-12T00:19:30;3.0;;;2.1;;
63690;SDS011;49837;57.280;27.070;2022-09-12T00:20:30;3.6;;;2.1;;
63690;SDS011;49837;57.280;27.070;2022-09-12T00:21:34;3.7;;;1.9;;
63690;SDS011;49837;57.280;27.070;2022-09-12T00:22:32;3.4;;;1.8;;
63690;SDS011;49837;57.280;27.070;2022-09-12T00:23:33;3.6;;;1.8;;
63690;SDS011;49837;57.280;27.070;2022-09-12T00:24:33;2.4;;;1.9;;
63690;SDS011;49837;57.280;27.070;2022-09-12T00:25:34;2.8;;;1.8;;
63690;SDS011;49837;57.280;27.070;2022-09-12T00:26:36;3.3;;;2.0;;
63690;SDS011;49837;57.280;27.070;2022-09-12T00:27:37;4.3;;;2.0;;
63690;SDS011;49837;57.280;27.070;2022-09-12T00:28:37;4.9;;;2.1;;
63690;SDS011;49837;57.280;27.070;2022-09-12T00:29:37;3.5;;;1.6;;
63690;SDS011;49837;57.280;27.070;2022-09-12T00:30:41;2.8;;;2.0;;
63690;SDS011;49837;57.280;27.070;2022-09-12T00:31:39;2.5;;;1.8;;
63690;SDS011;49837;57.280;27.070;2022-09-12T00:32:39;3.5;;;2.5;;
63690;SDS011;49837;57.280;27.070;2022-09-12T00:33:40;3.2;;;1.9;;
63690;SDS011;49837;57.280;27.070;2022-09-12T00:34:40;3.7;;;2.0;;
63690;SDS011;49837;57.280;27.070;2022-09-12T00:35:44;2.9;;;1.9;;
63690;SDS011;49837;57.280;27.070;2022-09-12T00:36:43;2.7;;;2.0;;
63690;SDS011;49837;57.280;27.070;2022-09-12T00:37:43;4.4;;;2.0;;
63690;SDS011;49837;57.280;27.070;2022-09-12T00:38:44;2.7;;;1.8;;
63690;SDS011;49837;57.280;27.070;2022-09-12T00:39:44;2.5;;;1.9;;
63690;SDS011;49837;57.280;27.070;2022-09-12T00:40:44;2.4;;;1.7;;
63690;SDS011;49837;57.280;27.070;2022-09-12T00:41:44;2.8;;;1.7;;
63690;SDS011;49837;57.280;27.070;2022-09-12T00:42:45;4.3;;;2.3;;
63690;SDS011;49837;57.280;27.070;2022-09-12T00:43:46;3.1;;;1.8;;
63690;SDS011;49837;57.280;27.070;2022-09-12T00:44:49;4.6;;;1.9;;
63690;SDS011;49837;57.280;27.070;2022-09-12T00:45:49;3.4;;;1.8;;
63690;SDS011;49837;57.280;27.070;2022-09-12T00:46:53;3.7;;;1.7;;
63690;SDS011;49837;57.280;27.070;2022-09-12T00:47:51;3.4;;;2.0;;
63690;SDS011;49837;57.280;27.070;2022-09-12T00:48:58;2.1;;;1.7;;
63690;SDS011;49837;57.280;27.070;2022-09-12T00:49:58;2.9;;;1.8;;
63690;SDS011;49837;57.280;27.070;2022-09-12T00:50:59;4.2;;;1.8;;
63690;SDS011;49837;57.280;27.070;2022-09-12T00:52:09;2.5;;;1.7;;
63690;SDS011;49837;57.280;27.070;2022-09-12T00:53:03;2.2;;;1.8;;
63690;SDS011;49837;57.280;27.070;2022-09-12T00:54:05;2.3;;;1.7;;
63690;SDS011;49837;57.280;27.070;2022-09-12T00:55:21;2.8;;;1.8;;
63690;SDS011;49837;57.280;27.070;2022-09-12T00:56:10;5.1;;;1.8;;
63690;SDS011;49837;57.280;27.070;2022-09-12T00:57:11;3.5;;;2.0;;
63690;SDS011;49837;57.280;27.070;2022-09-12T00:58:22;3.0;;;1.9;;
63690;SDS011;49837;57.280;27.070;2022-09-12T00:59:20;4.0;;;1.8;;
63690;SDS011;49837;57.280;27.070;2022-09-12T01:00:17;3.2;;;1.7;;
63690;SDS011;49837;57.280;27.070;2022-09-12T01:01:17;2.6;;;1.6;;
63690;SDS011;49837;57.280;27.070;2022-09-12T01:02:17;2.7;;;1.9;;
63690;SDS011;49837;57.280;27.070;2022-09-12T01:03:19;3.0;;;1.8;;
63690;SDS011;49837;57.280;27.070;2022-09-12T01:04:19;3.3;;;1.9;;
63690;SDS011;49837;57.280;27.070;2022-09-12T01:05:20;2.7;;;1.8;;
63690;SDS011;49837;57.280;27.070;2022-09-12T01:06:32;3.6;;;1.8;;
63690;SDS011;49837;57.280;27.070;2022-09-12T01:07:20;2.2;;;1.6;;
63690;SDS011;49837;57.280;27.070;2022-09-12T01:08:21;3.6;;;1.7;;
63690;SDS011;49837;57.280;27.070;2022-09-12T01:09:21;4.7;;;1.7;;
63690;SDS011;49837;57.280;27.070;2022-09-12T01:10:21;3.2;;;1.7;;
63690;SDS011;49837;57.280;27.070;2022-09-12T01:11:22;2.1;;;1.6;;
63690;SDS011;49837;57.280;27.070;2022-09-12T01:12:22;3.3;;;1.7;;
63690;SDS011;49837;57.280;27.070;2022-09-12T01:13:23;2.5;;;1.6;;
63690;SDS011;49837;57.280;27.070;2022-09-12T01:14:23;2.6;;;1.7;;
63690;SDS011;49837;57.280;27.070;2022-09-12T01:15:23;2.1;;;1.6;;
63690;SDS011;49837;57.280;27.070;2022-09-12T01:16:24;2.6;;;1.6;;
63690;SDS011;49837;57.280;27.070;2022-09-12T01:17:27;2.5;;;1.6;;
63690;SDS011;49837;57.280;27.070;2022-09-12T01:20:42;2.7;;;1.5;;
63690;SDS011;49837;57.280;27.070;2022-09-12T01:24:49;2.2;;;1.7;;
63690;SDS011;49837;57.280;27.070;2022-09-12T01:25:57;3.6;;;1.6;;
63690;SDS011;49837;57.280;27.070;2022-09-12T01:28:00;2.0;;;1.6;;
63690;SDS011;49837;57.280;27.070;2022-09-12T01:32:20;3.0;;;1.6;;
63690;SDS011;49837;57.280;27.070;2022-09-12T01:33:03;2.8;;;1.7;;
63690;SDS011;49837;57.280;27.070;2022-09-12T01:34:17;2.6;;;1.4;;
63690;SDS011;49837;57.280;27.070;2022-09-12T01:35:10;3.3;;;1.5;;
63690;SDS011;49837;57.280;27.070;2022-09-12T01:37:17;2.7;;;1.8;;
63690;SDS011;49837;57.280;27.070;2022-09-12T01:38:09;1.4;;;1.3;;
63690;SDS011;49837;57.280;27.070;2022-09-12T01:39:13;2.3;;;1.7;;
63690;SDS011;49837;57.280;27.070;2022-09-12T01:40:31;1.9;;;1.7;;
63690;SDS011;49837;57.280;27.070;2022-09-12T01:43:23;2.0;;;1.5;;
63690;SDS011;49837;57.280;27.070;2022-09-12T01:45:23;4.4;;;1.6;;
63690;SDS011;49837;57.280;27.070;2022-09-12T01:46:29;4.2;;;1.7;;
63690;SDS011;49837;57.280;27.070;2022-09-12T01:47:48;2.9;;;1.4;;
63690;SDS011;49837;57.280;27.070;2022-09-12T01:48:32;2.4;;;1.5;;
63690;SDS011;49837;57.280;27.070;2022-09-12T01:50:45;2.1;;;1.4;;
63690;SDS011;49837;57.280;27.070;2022-09-12T01:51:41;4.7;;;1.5;;
63690;SDS011;49837;57.280;27.070;2022-09-12T01:52:53;2.3;;;1.7;;
63690;SDS011;49837;57.280;27.070;2022-09-12T01:53:53;2.0;;;1.5;;
63690;SDS011;49837;57.280;27.070;2022-09-12T01:54:47;1.9;;;1.5;;
63690;SDS011;49837;57.280;27.070;2022-09-12T01:55:50;2.1;;;1.5;;
63690;SDS011;49837;57.280;27.070;2022-09-12T01:56:50;2.5;;;1.5;;
63690;SDS011;49837;57.280;27.070;2022-09-12T01:57:58;1.9;;;1.5;;
63690;SDS011;49837;57.280;27.070;2022-09-12T01:59:58;2.3;;;1.3;;
63690;SDS011;49837;57.280;27.070;2022-09-12T02:01:08;3.3;;;1.6;;
63690;SDS011;49837;57.280;27.070;2022-09-12T02:02:06;1.7;;;1.5;;
63690;SDS011;49837;57.280;27.070;2022-09-12T02:03:10;1.3;;;1.2;;
63690;SDS011;49837;57.280;27.070;2022-09-12T02:05:27;4.5;;;1.3;;
63690;SDS011;49837;57.280;27.070;2022-09-12T02:06:14;3.0;;;1.4;;
63690;SDS011;49837;57.280;27.070;2022-09-12T02:07:15;2.2;;;1.5;;
63690;SDS011;49837;57.280;27.070;2022-09-12T02:08:18;1.9;;;1.3;;
63690;SDS011;49837;57.280;27.070;2022-09-12T02:09:18;2.3;;;1.5;;
63690;SDS011;49837;57.280;27.070;2022-09-12T02:10:21;2.4;;;1.4;;
63690;SDS011;49837;57.280;27.070;2022-09-12T02:11:22;1.9;;;1.4;;
63690;SDS011;49837;57.280;27.070;2022-09-12T02:12:28;1.7;;;1.5;;
63690;SDS011;49837;57.280;27.070;2022-09-12T02:13:47;1.2;;;1.1;;
63690;SDS011;49837;57.280;27.070;2022-09-12T02:14:32;1.9;;;1.3;;
63690;SDS011;49837;57.280;27.070;2022-09-12T02:15:36;1.8;;;1.4;;
63690;SDS011;49837;57.280;27.070;2022-09-12T02:16:40;1.5;;;1.2;;
63690;SDS011;49837;57.280;27.070;2022-09-12T02:17:41;2.6;;;1.4;;
63690;SDS011;49837;57.280;27.070;2022-09-12T02:18:43;1.5;;;1.2;;
63690;SDS011;49837;57.280;27.070;2022-09-12T02:19:48;1.6;;;1.3;;
63690;SDS011;49837;57.280;27.070;2022-09-12T02:20:50;1.3;;;1.2;;
63690;SDS011;49837;57.280;27.070;2022-09-12T02:22:00;1.9;;;1.3;;
63690;SDS011;49837;57.280;27.070;2022-09-12T02:22:53;2.0;;;1.4;;
63690;SDS011;49837;57.280;27.070;2022-09-12T02:23:55;2.8;;;1.4;;
63690;SDS011;49837;57.280;27.070;2022-09-12T02:24:56;1.8;;;1.3;;
63690;SDS011;49837;57.280;27.070;2022-09-12T02:25:57;1.7;;;1.3;;
63690;SDS011;49837;57.280;27.070;2022-09-12T02:27:08;1.9;;;1.2;;
63690;SDS011;49837;57.280;27.070;2022-09-12T02:28:01;1.3;;;1.2;;
63690;SDS011;49837;57.280;27.070;2022-09-12T02:28:59;1.9;;;1.4;;
63690;SDS011;49837;57.280;27.070;2022-09-12T02:30:00;1.5;;;1.2;;
63690;SDS011;49837;57.280;27.070;2022-09-12T02:31:10;1.8;;;1.3;;
63690;SDS011;49837;57.280;27.070;2022-09-12T02:32:04;1.8;;;1.4;;
63690;SDS011;49837;57.280;27.070;2022-09-12T02:33:06;1.5;;;1.4;;
63690;SDS011;49837;57.280;27.070;2022-09-12T02:34:26;1.5;;;1.3;;
63690;SDS011;49837;57.280;27.070;2022-09-12T02:35:15;1.9;;;1.5;;
63690;SDS011;49837;57.280;27.070;2022-09-12T02:36:16;2.0;;;1.4;;
63690;SDS011;49837;57.280;27.070;2022-09-12T02:37:22;3.0;;;1.5;;
63690;SDS011;49837;57.280;27.070;2022-09-12T02:39:24;2.2;;;1.5;;
63690;SDS011;49837;57.280;27.070;2022-09-12T02:40:24;1.6;;;1.3;;
63690;SDS011;49837;57.280;27.070;2022-09-12T02:41:25;2.1;;;1.5;;
63690;SDS011;49837;57.280;27.070;2022-09-12T02:42:25;2.2;;;1.3;;
63690;SDS011;49837;57.280;27.070;2022-09-12T02:43:26;1.3;;;1.2;;
63690;SDS011;49837;57.280;27.070;2022-09-12T02:44:26;1.3;;;1.1;;
63690;SDS011;49837;57.280;27.070;2022-09-12T02:45:26;1.1;;;1.1;;
63690;SDS011;49837;57.280;27.070;2022-09-12T02:46:28;2.7;;;1.3;;
63690;SDS011;49837;57.280;27.070;2022-09-12T02:47:31;1.9;;;1.1;;
63690;SDS011;49837;57.280;27.070;2022-09-12T02:48:35;1.8;;;1.3;;
63690;SDS011;49837;57.280;27.070;2022-09-12T02:49:37;1.2;;;1.1;;
63690;SDS011;49837;57.280;27.070;2022-09-12T02:50:38;1.6;;;1.2;;
63690;SDS011;49837;57.280;27.070;2022-09-12T02:51:38;1.4;;;1.2;;
63690;SDS011;49837;57.280;27.070;2022-09-12T02:52:38;1.5;;;1.2;;
63690;SDS011;49837;57.280;27.070;2022-09-12T02:53:39;2.0;;;1.3;;
63690;SDS011;49837;57.280;27.070;2022-09-12T02:54:39;2.5;;;1.4;;
63690;SDS011;49837;57.280;27.070;2022-09-12T02:55:40;2.0;;;1.3;;
63690;SDS011;49837;57.280;27.070;2022-09-12T02:56:41;2.0;;;1.4;;
63690;SDS011;49837;57.280;27.070;2022-09-12T02:57:40;1.5;;;1.3;;
63690;SDS011;49837;57.280;27.070;2022-09-12T02:58:41;1.8;;;1.3;;
63690;SDS011;49837;57.280;27.070;2022-09-12T02:59:41;1.3;;;1.2;;
63690;SDS011;49837;57.280;27.070;2022-09-12T03:00:43;1.5;;;1.3;;
63690;SDS011;49837;57.280;27.070;2022-09-12T03:01:55;1.5;;;1.2;;
63690;SDS011;49837;57.280;27.070;2022-09-12T03:02:53;1.6;;;1.2;;
63690;SDS011;49837;57.280;27.070;2022-09-12T03:03:53;3.0;;;1.2;;
63690;SDS011;49837;57.280;27.070;2022-09-12T03:05:56;1.5;;;1.2;;
63690;SDS011;49837;57.280;27.070;2022-09-12T03:08:06;1.9;;;1.1;;
63690;SDS011;49837;57.280;27.070;2022-09-12T03:10:07;1.5;;;1.3;;
63690;SDS011;49837;57.280;27.070;2022-09-12T03:11:16;2.1;;;1.1;;
63690;SDS011;49837;57.280;27.070;2022-09-12T03:13:23;1.8;;;1.2;;
63690;SDS011;49837;57.280;27.070;2022-09-12T03:17:33;1.5;;;1.2;;
63690;SDS011;49837;57.280;27.070;2022-09-12T03:21:32;1.3;;;1.2;;
63690;SDS011;49837;57.280;27.070;2022-09-12T03:22:41;2.2;;;1.2;;
63690;SDS011;49837;57.280;27.070;2022-09-12T03:23:42;1.4;;;1.2;;
63690;SDS011;49837;57.280;27.070;2022-09-12T03:24:51;1.6;;;1.3;;
63690;SDS011;49837;57.280;27.070;2022-09-12T03:26:04;2.3;;;1.1;;
63690;SDS011;49837;57.280;27.070;2022-09-12T03:26:57;1.0;;;1.0;;
63690;SDS011;49837;57.280;27.070;2022-09-12T03:27:59;1.3;;;1.1;;
63690;SDS011;49837;57.280;27.070;2022-09-12T03:28:56;1.7;;;1.3;;
63690;SDS011;49837;57.280;27.070;2022-09-12T03:29:56;1.7;;;1.3;;
63690;SDS011;49837;57.280;27.070;2022-09-12T03:30:56;1.5;;;1.3;;
63690;SDS011;49837;57.280;27.070;2022-09-12T03:31:57;1.7;;;1.1;;
63690;SDS011;49837;57.280;27.070;2022-09-12T03:32:57;2.1;;;1.1;;
63690;SDS011;49837;57.280;27.070;2022-09-12T03:33:58;3.1;;;1.2;;
63690;SDS011;49837;57.280;27.070;2022-09-12T03:34:58;2.8;;;1.2;;
63690;SDS011;49837;57.280;27.070;2022-09-12T03:35:58;2.2;;;1.2;;
63690;SDS011;49837;57.280;27.070;2022-09-12T03:36:59;15.6;;;11.2;;
63690;SDS011;49837;57.280;27.070;2022-09-12T03:37:59;14.0;;;9.3;;
63690;SDS011;49837;57.280;27.070;2022-09-12T03:39:00;6.9;;;4.5;;
63690;SDS011;49837;57.280;27.070;2022-09-12T03:40:00;4.6;;;3.8;;
63690;SDS011;49837;57.280;27.070;2022-09-12T03:41:00;5.1;;;3.4;;
63690;SDS011;49837;57.280;27.070;2022-09-12T03:42:01;1.9;;;1.7;;
63690;SDS011;49837;57.280;27.070;2022-09-12T03:43:02;2.1;;;1.4;;
63690;SDS011;49837;57.280;27.070;2022-09-12T03:44:03;3.3;;;1.7;;
63690;SDS011;49837;57.280;27.070;2022-09-12T03:45:04;1.7;;;1.2;;
63690;SDS011;49837;57.280;27.070;2022-09-12T03:46:04;2.4;;;1.1;;
63690;SDS011;49837;57.280;27.070;2022-09-12T03:47:04;1.8;;;1.3;;
63690;SDS011;49837;57.280;27.070;2022-09-12T03:48:07;1.2;;;1.1;;
63690;SDS011;49837;57.280;27.070;2022-09-12T03:49:07;3.4;;;1.3;;
63690;SDS011;49837;57.280;27.070;2022-09-12T03:50:08;1.3;;;1.2;;
63690;SDS011;49837;57.280;27.070;2022-09-12T03:51:08;2.7;;;1.2;;
63690;SDS011;49837;57.280;27.070;2022-09-12T03:52:08;2.3;;;1.3;;
63690;SDS011;49837;57.280;27.070;2022-09-12T03:53:09;2.7;;;1.1;;
63690;SDS011;49837;57.280;27.070;2022-09-12T03:54:12;2.7;;;1.3;;
63690;SDS011;49837;57.280;27.070;2022-09-12T03:55:13;2.0;;;1.6;;
63690;SDS011;49837;57.280;27.070;2022-09-12T03:56:13;2.3;;;1.3;;
63690;SDS011;49837;57.280;27.070;2022-09-12T03:57:14;1.9;;;1.3;;
63690;SDS011;49837;57.280;27.070;2022-09-12T03:58:14;1.6;;;1.2;;
63690;SDS011;49837;57.280;27.070;2022-09-12T03:59:14;1.9;;;1.5;;
63690;SDS011;49837;57.280;27.070;2022-09-12T04:00:15;2.0;;;1.4;;
63690;SDS011;49837;57.280;27.070;2022-09-12T04:01:16;1.5;;;1.1;;
63690;SDS011;49837;57.280;27.070;2022-09-12T04:02:16;2.2;;;1.3;;
63690;SDS011;49837;57.280;27.070;2022-09-12T04:03:16;3.4;;;1.5;;
63690;SDS011;49837;57.280;27.070;2022-09-12T04:04:17;1.3;;;1.2;;
63690;SDS011;49837;57.280;27.070;2022-09-12T04:05:17;2.5;;;1.4;;
63690;SDS011;49837;57.280;27.070;2022-09-12T04:06:18;1.9;;;1.3;;
63690;SDS011;49837;57.280;27.070;2022-09-12T04:07:18;1.8;;;1.2;;
63690;SDS011;49837;57.280;27.070;2022-09-12T04:08:18;4.4;;;1.3;;
63690;SDS011;49837;57.280;27.070;2022-09-12T04:09:19;2.2;;;1.3;;
63690;SDS011;49837;57.280;27.070;2022-09-12T04:10:19;2.7;;;1.2;;
63690;SDS011;49837;57.280;27.070;2022-09-12T04:11:20;2.0;;;1.3;;
63690;SDS011;49837;57.280;27.070;2022-09-12T04:12:20;2.5;;;1.3;;
63690;SDS011;49837;57.280;27.070;2022-09-12T04:13:20;1.5;;;1.2;;
63690;SDS011;49837;57.280;27.070;2022-09-12T04:14:21;2.1;;;1.2;;
63690;SDS011;49837;57.280;27.070;2022-09-12T04:15:21;1.4;;;1.1;;
63690;SDS011;49837;57.280;27.070;2022-09-12T04:16:21;1.6;;;1.3;;
63690;SDS011;49837;57.280;27.070;2022-09-12T04:17:22;1.6;;;1.2;;
63690;SDS011;49837;57.280;27.070;2022-09-12T04:18:22;2.6;;;1.5;;
63690;SDS011;49837;57.280;27.070;2022-09-12T04:19:24;1.6;;;1.3;;
63690;SDS011;49837;57.280;27.070;2022-09-12T04:20:23;2.3;;;1.4;;
63690;SDS011;49837;57.280;27.070;2022-09-12T04:21:23;2.8;;;1.4;;
63690;SDS011;49837;57.280;27.070;2022-09-12T04:22:24;2.9;;;1.4;;
63690;SDS011;49837;57.280;27.070;2022-09-12T04:23:24;2.2;;;1.4;;
63690;SDS011;49837;57.280;27.070;2022-09-12T04:24:25;2.7;;;1.4;;
63690;SDS011;49837;57.280;27.070;2022-09-12T04:25:25;2.6;;;1.8;;
63690;SDS011;49837;57.280;27.070;2022-09-12T04:26:25;1.3;;;1.1;;
63690;SDS011;49837;57.280;27.070;2022-09-12T04:27:26;1.5;;;1.2;;
63690;SDS011;49837;57.280;27.070;2022-09-12T04:28:26;3.1;;;1.4;;
63690;SDS011;49837;57.280;27.070;2022-09-12T04:29:27;2.6;;;1.1;;
63690;SDS011;49837;57.280;27.070;2022-09-12T04:30:27;1.5;;;1.3;;
63690;SDS011;49837;57.280;27.070;2022-09-12T04:31:27;1.9;;;1.3;;
63690;SDS011;49837;57.280;27.070;2022-09-12T04:32:28;1.9;;;1.2;;
63690;SDS011;49837;57.280;27.070;2022-09-12T04:33:28;1.8;;;1.3;;
63690;SDS011;49837;57.280;27.070;2022-09-12T04:34:29;1.3;;;1.2;;
63690;SDS011;49837;57.280;27.070;2022-09-12T04:35:29;2.6;;;1.5;;
63690;SDS011;49837;57.280;27.070;2022-09-12T04:36:29;2.0;;;1.3;;
63690;SDS011;49837;57.280;27.070;2022-09-12T04:37:30;4.1;;;1.3;;
63690;SDS011;49837;57.280;27.070;2022-09-12T04:38:30;2.2;;;1.3;;
63690;SDS011;49837;57.280;27.070;2022-09-12T04:39:31;3.9;;;1.4;;
63690;SDS011;49837;57.280;27.070;2022-09-12T04:40:31;2.6;;;1.3;;
63690;SDS011;49837;57.280;27.070;2022-09-12T04:41:33;1.9;;;1.2;;
63690;SDS011;49837;57.280;27.070;2022-09-12T04:42:32;2.9;;;1.3;;
63690;SDS011;49837;57.280;27.070;2022-09-12T04:43:32;1.6;;;1.3;;
63690;SDS011;49837;57.280;27.070;2022-09-12T04:44:33;3.2;;;1.9;;
63690;SDS011;49837;57.280;27.070;2022-09-12T04:45:33;2.7;;;1.5;;
63690;SDS011;49837;57.280;27.070;2022-09-12T04:46:34;2.0;;;1.4;;
63690;SDS011;49837;57.280;27.070;2022-09-12T04:47:34;2.3;;;1.2;;
63690;SDS011;49837;57.280;27.070;2022-09-12T04:48:34;1.9;;;1.2;;
63690;SDS011;49837;57.280;27.070;2022-09-12T04:49:35;1.8;;;1.3;;
63690;SDS011;49837;57.280;27.070;2022-09-12T04:50:35;1.8;;;1.4;;
63690;SDS011;49837;57.280;27.070;2022-09-12T04:51:36;1.6;;;1.4;;
63690;SDS011;49837;57.280;27.070;2022-09-12T04:52:36;2.1;;;1.3;;
63690;SDS011;49837;57.280;27.070;2022-09-12T04:53:36;2.3;;;1.5;;
63690;SDS011;49837;57.280;27.070;2022-09-12T04:54:37;1.8;;;1.2;;
63690;SDS011;49837;57.280;27.070;2022-09-12T04:55:37;1.7;;;1.2;;
63690;SDS011;49837;57.280;27.070;2022-09-12T04:56:38;2.3;;;1.4;;
63690;SDS011;49837;57.280;27.070;2022-09-12T04:57:38;1.6;;;1.2;;
63690;SDS011;49837;57.280;27.070;2022-09-12T04:58:38;1.9;;;1.4;;
63690;SDS011;49837;57.280;27.070;2022-09-12T04:59:39;2.1;;;1.3;;
63690;SDS011;49837;57.280;27.070;2022-09-12T05:00:39;2.0;;;1.1;;
63690;SDS011;49837;57.280;27.070;2022-09-12T05:01:40;1.6;;;1.1;;
63690;SDS011;49837;57.280;27.070;2022-09-12T05:02:40;1.7;;;1.1;;
63690;SDS011;49837;57.280;27.070;2022-09-12T05:03:41;2.4;;;1.2;;
63690;SDS011;49837;57.280;27.070;2022-09-12T05:04:41;1.4;;;1.3;;
63690;SDS011;49837;57.280;27.070;2022-09-12T05:05:41;1.5;;;1.2;;
63690;SDS011;49837;57.280;27.070;2022-09-12T05:06:41;2.1;;;1.3;;
63690;SDS011;49837;57.280;27.070;2022-09-12T05:07:42;3.3;;;1.2;;
63690;SDS011;49837;57.280;27.070;2022-09-12T05:08:42;1.7;;;1.3;;
63690;SDS011;49837;57.280;27.070;2022-09-12T05:09:43;3.1;;;1.1;;
63690;SDS011;49837;57.280;27.070;2022-09-12T05:10:43;3.9;;;1.4;;
63690;SDS011;49837;57.280;27.070;2022-09-12T05:11:44;1.3;;;1.2;;
63690;SDS011;49837;57.280;27.070;2022-09-12T05:12:46;2.9;;;1.3;;
63690;SDS011;49837;57.280;27.070;2022-09-12T05:13:47;1.4;;;1.3;;
63690;SDS011;49837;57.280;27.070;2022-09-12T05:14:47;4.4;;;2.0;;
63690;SDS011;49837;57.280;27.070;2022-09-12T05:15:53;3.7;;;1.8;;
63690;SDS011;49837;57.280;27.070;2022-09-12T05:16:51;1.7;;;1.5;;
63690;SDS011;49837;57.280;27.070;2022-09-12T05:17:51;1.3;;;1.2;;
63690;SDS011;49837;57.280;27.070;2022-09-12T05:18:52;1.6;;;1.2;;
63690;SDS011;49837;57.280;27.070;2022-09-12T05:19:52;2.2;;;1.6;;
63690;SDS011;49837;57.280;27.070;2022-09-12T05:20:53;3.5;;;1.8;;
63690;SDS011;49837;57.280;27.070;2022-09-12T05:21:53;2.0;;;1.1;;
63690;SDS011;49837;57.280;27.070;2022-09-12T05:22:53;1.3;;;1.1;;
63690;SDS011;49837;57.280;27.070;2022-09-12T05:23:54;1.5;;;1.1;;
63690;SDS011;49837;57.280;27.070;2022-09-12T05:24:54;1.6;;;1.1;;
63690;SDS011;49837;57.280;27.070;2022-09-12T05:25:55;1.6;;;1.0;;
63690;SDS011;49837;57.280;27.070;2022-09-12T05:26:55;2.1;;;1.2;;
63690;SDS011;49837;57.280;27.070;2022-09-12T05:27:55;1.8;;;1.2;;
63690;SDS011;49837;57.280;27.070;2022-09-12T05:28:56;1.2;;;1.1;;
63690;SDS011;49837;57.280;27.070;2022-09-12T05:29:56;2.2;;;1.1;;
63690;SDS011;49837;57.280;27.070;2022-09-12T05:32:01;1.7;;;1.1;;
63690;SDS011;49837;57.280;27.070;2022-09-12T05:33:02;1.6;;;1.1;;
63690;SDS011;49837;57.280;27.070;2022-09-12T05:34:02;2.5;;;1.4;;
63690;SDS011;49837;57.280;27.070;2022-09-12T05:35:03;1.2;;;1.1;;
63690;SDS011;49837;57.280;27.070;2022-09-12T05:36:04;1.1;;;1.0;;
63690;SDS011;49837;57.280;27.070;2022-09-12T05:37:03;1.2;;;1.1;;
63690;SDS011;49837;57.280;27.070;2022-09-12T05:38:04;1.8;;;1.2;;
63690;SDS011;49837;57.280;27.070;2022-09-12T05:39:04;2.8;;;1.2;;
63690;SDS011;49837;57.280;27.070;2022-09-12T05:40:05;1.3;;;1.1;;
63690;SDS011;49837;57.280;27.070;2022-09-12T05:41:06;1.5;;;1.2;;
63690;SDS011;49837;57.280;27.070;2022-09-12T05:42:07;1.1;;;1.0;;
63690;SDS011;49837;57.280;27.070;2022-09-12T05:43:08;1.2;;;1.1;;
63690;SDS011;49837;57.280;27.070;2022-09-12T05:44:12;1.7;;;1.2;;
63690;SDS011;49837;57.280;27.070;2022-09-12T05:45:10;1.1;;;1.0;;
63690;SDS011;49837;57.280;27.070;2022-09-12T05:46:11;2.4;;;1.2;;
63690;SDS011;49837;57.280;27.070;2022-09-12T05:47:11;1.5;;;1.1;;
63690;SDS011;49837;57.280;27.070;2022-09-12T05:48:12;2.9;;;1.1;;
63690;SDS011;49837;57.280;27.070;2022-09-12T05:49:12;1.8;;;1.0;;
63690;SDS011;49837;57.280;27.070;2022-09-12T05:50:13;1.4;;;1.0;;
63690;SDS011;49837;57.280;27.070;2022-09-12T05:51:14;1.4;;;1.1;;
63690;SDS011;49837;57.280;27.070;2022-09-12T05:52:13;1.1;;;1.0;;
63690;SDS011;49837;57.280;27.070;2022-09-12T05:53:14;1.9;;;1.0;;
63690;SDS011;49837;57.280;27.070;2022-09-12T05:54:16;1.2;;;1.1;;
63690;SDS011;49837;57.280;27.070;2022-09-12T05:55:15;1.3;;;1.0;;
63690;SDS011;49837;57.280;27.070;2022-09-12T05:56:16;2.4;;;1.0;;
63690;SDS011;49837;57.280;27.070;2022-09-12T05:57:18;2.4;;;1.1;;
63690;SDS011;49837;57.280;27.070;2022-09-12T05:58:18;1.1;;;1.0;;
63690;SDS011;49837;57.280;27.070;2022-09-12T05:59:19;1.5;;;1.0;;
63690;SDS011;49837;57.280;27.070;2022-09-12T06:00:19;0.9;;;0.9;;
63690;SDS011;49837;57.280;27.070;2022-09-12T06:01:19;0.9;;;0.9;;
63690;SDS011;49837;57.280;27.070;2022-09-12T06:02:20;2.5;;;1.1;;
63690;SDS011;49837;57.280;27.070;2022-09-12T06:03:20;1.0;;;0.9;;
63690;SDS011;49837;57.280;27.070;2022-09-12T06:04:20;1.7;;;1.1;;
63690;SDS011;49837;57.280;27.070;2022-09-12T06:05:21;1.3;;;1.2;;
63690;SDS011;49837;57.280;27.070;2022-09-12T06:06:22;1.7;;;1.1;;
63690;SDS011;49837;57.280;27.070;2022-09-12T06:07:22;1.8;;;1.1;;
63690;SDS011;49837;57.280;27.070;2022-09-12T06:08:22;1.1;;;1.0;;
63690;SDS011;49837;57.280;27.070;2022-09-12T06:09:22;1.7;;;1.2;;
63690;SDS011;49837;57.280;27.070;2022-09-12T06:10:23;1.1;;;1.0;;
63690;SDS011;49837;57.280;27.070;2022-09-12T06:11:25;2.7;;;1.0;;
63690;SDS011;49837;57.280;27.070;2022-09-12T06:12:24;1.2;;;1.0;;
63690;SDS011;49837;57.280;27.070;2022-09-12T06:13:24;1.1;;;1.0;;
63690;SDS011;49837;57.280;27.070;2022-09-12T06:14:24;1.5;;;1.0;;
63690;SDS011;49837;57.280;27.070;2022-09-12T06:15:25;1.1;;;1.0;;
63690;SDS011;49837;57.280;27.070;2022-09-12T06:16:26;1.6;;;1.1;;
63690;SDS011;49837;57.280;27.070;2022-09-12T06:17:26;1.2;;;1.0;;
63690;SDS011;49837;57.280;27.070;2022-09-12T06:18:26;1.7;;;0.9;;
63690;SDS011;49837;57.280;27.070;2022-09-12T06:19:27;1.4;;;1.1;;
63690;SDS011;49837;57.280;27.070;2022-09-12T06:20:27;3.1;;;1.0;;
63690;SDS011;49837;57.280;27.070;2022-09-12T06:21:28;2.4;;;0.9;;
63690;SDS011;49837;57.280;27.070;2022-09-12T06:22:28;1.5;;;0.9;;
63690;SDS011;49837;57.280;27.070;2022-09-12T06:23:28;0.8;;;0.8;;
63690;SDS011;49837;57.280;27.070;2022-09-12T06:24:29;1.5;;;0.9;;
63690;SDS011;49837;57.280;27.070;2022-09-12T06:25:29;1.6;;;0.9;;
63690;SDS011;49837;57.280;27.070;2022-09-12T06:26:30;0.9;;;0.9;;
63690;SDS011;49837;57.280;27.070;2022-09-12T06:27:30;2.1;;;1.0;;
63690;SDS011;49837;57.280;27.070;2022-09-12T06:28:30;3.0;;;2.1;;
63690;SDS011;49837;57.280;27.070;2022-09-12T06:29:31;2.3;;;1.5;;
63690;SDS011;49837;57.280;27.070;2022-09-12T06:30:31;3.2;;;1.2;;
63690;SDS011;49837;57.280;27.070;2022-09-12T06:31:33;2.5;;;1.1;;
63690;SDS011;49837;57.280;27.070;2022-09-12T06:32:32;1.6;;;0.9;;
63690;SDS011;49837;57.280;27.070;2022-09-12T06:33:33;1.0;;;0.8;;
63690;SDS011;49837;57.280;27.070;2022-09-12T06:34:33;1.7;;;1.0;;
63690;SDS011;49837;57.280;27.070;2022-09-12T06:35:37;0.8;;;0.8;;
63690;SDS011;49837;57.280;27.070;2022-09-12T06:36:38;0.8;;;0.8;;
63690;SDS011;49837;57.280;27.070;2022-09-12T06:37:37;1.1;;;0.9;;
63690;SDS011;49837;57.280;27.070;2022-09-12T06:38:38;1.0;;;0.8;;
63690;SDS011;49837;57.280;27.070;2022-09-12T06:39:38;1.2;;;1.0;;
63690;SDS011;49837;57.280;27.070;2022-09-12T06:40:42;2.0;;;1.1;;
63690;SDS011;49837;57.280;27.070;2022-09-12T06:41:40;1.2;;;0.9;;